createdAt,value
2022-12-20T00:02:03.234Z,46.10
2022-12-20T00:04:58.022Z,40.50
2022-12-20T00:07:53.412Z,36.30
2022-12-20T00:10:52.044Z,34.40
2022-12-20T00:16:36.016Z,41.20
2022-12-20T00:19:12.184Z,36.80
2022-12-20T00:22:00.024Z,30.40
2022-12-20T00:24:42.004Z,27.70
2022-12-20T00:27:36.991Z,28.30
2022-12-20T00:30:31.995Z,29.50
2022-12-20T00:33:20.000Z,33.50
2022-12-20T00:35:55.155Z,35.40
2022-12-20T00:38:42.996Z,32.30
2022-12-20T00:41:20.532Z,27.90
2022-12-20T00:44:08.991Z,61.70
2022-12-20T00:46:44.275Z,56.40
2022-12-20T00:49:32.020Z,35.70
2022-12-20T00:52:14.193Z,39.10
2022-12-20T00:55:09.027Z,31.10
2022-12-20T00:58:04.001Z,27.70
2022-12-20T01:00:59.077Z,30.10
2022-12-20T01:03:54.090Z,28.20
2022-12-20T01:06:50.205Z,29.80
2022-12-20T01:09:44.988Z,31.60
2022-12-20T01:12:39.984Z,34.80
2022-12-20T01:15:36.015Z,36.40
2022-12-20T01:18:30.988Z,31.60
2022-12-20T01:21:26.991Z,36.10
2022-12-20T01:24:16.162Z,38.60
2022-12-20T01:27:04.192Z,38.20
2022-12-20T01:29:59.980Z,39.80
2022-12-20T01:32:47.986Z,25.20
2022-12-20T01:35:23.140Z,24.30
2022-12-20T01:38:10.978Z,36.30
2022-12-20T01:40:53.000Z,31.40
2022-12-20T01:43:55.185Z,38.00
2022-12-20T01:46:39.199Z,31.60
2022-12-20T01:49:38.192Z,39.70
2022-12-20T01:52:58.008Z,52.50
2022-12-20T01:55:54.994Z,53.90
2022-12-20T01:58:43.978Z,49.40
2022-12-20T02:01:39.067Z,46.80
2022-12-20T02:04:33.998Z,50.30
2022-12-20T02:07:32.989Z,48.10
2022-12-20T02:10:28.978Z,50.70
2022-12-20T02:13:22.982Z,48.80
2022-12-20T02:16:12.127Z,49.60
2022-12-20T02:19:08.987Z,38.20
2022-12-20T02:22:29.972Z,56.90
2022-12-20T02:25:24.979Z,61.70
2022-12-20T02:28:18.980Z,48.80
2022-12-20T02:31:01.958Z,40.80
2022-12-20T02:33:53.976Z,53.50
2022-12-20T02:36:29.112Z,65.50
2022-12-20T02:39:26.963Z,54.50
2022-12-20T02:42:24.021Z,50.10
2022-12-20T02:45:22.990Z,43.60
2022-12-20T02:48:22.959Z,43.30
2022-12-20T02:51:18.975Z,36.20
2022-12-20T02:54:13.964Z,36.60
2022-12-20T02:57:15.956Z,32.20
2022-12-20T03:00:26.963Z,35.30
2022-12-20T03:03:30.999Z,40.10
2022-12-20T03:06:26.037Z,39.80
2022-12-20T03:09:20.965Z,34.60
2022-12-20T03:12:16.013Z,42.10
2022-12-20T03:15:11.154Z,42.90
2022-12-20T03:18:06.976Z,34.70
2022-12-20T03:20:55.967Z,38.60
2022-12-20T03:23:31.126Z,42.00
2022-12-20T03:26:18.955Z,41.60
2022-12-20T03:28:54.099Z,33.10
2022-12-20T03:31:42.962Z,40.50
2022-12-20T03:34:24.943Z,50.80
2022-12-20T03:37:19.960Z,49.20
2022-12-20T03:40:14.952Z,46.40
2022-12-20T03:43:09.963Z,50.20
2022-12-20T03:46:04.987Z,48.80
2022-12-20T03:48:52.963Z,51.10
2022-12-20T03:51:47.966Z,48.00
2022-12-20T03:54:35.949Z,59.00
2022-12-20T03:57:11.106Z,61.00
2022-12-20T03:59:59.191Z,48.20
2022-12-20T04:02:41.128Z,49.80
2022-12-20T04:05:36.162Z,45.40
2022-12-20T04:08:30.958Z,49.70
2022-12-20T04:11:25.960Z,45.90
2022-12-20T04:14:14.091Z,43.00
2022-12-20T04:17:01.967Z,40.10
2022-12-20T04:19:43.953Z,33.10
2022-12-20T04:22:38.958Z,33.00
2022-12-20T04:25:34.950Z,44.00
2022-12-20T04:28:29.948Z,51.50
2022-12-20T04:31:25.000Z,49.90
2022-12-20T04:34:19.942Z,49.70
2022-12-20T04:37:15.144Z,45.00
2022-12-20T04:40:09.945Z,43.20
2022-12-20T04:42:58.166Z,41.40
2022-12-20T04:45:33.083Z,39.20
2022-12-20T04:51:42.952Z,32.50
2022-12-20T04:54:39.958Z,32.50
2022-12-20T04:57:34.954Z,31.60
2022-12-20T05:00:29.929Z,28.80
2022-12-20T05:03:24.992Z,29.70
2022-12-20T05:06:13.936Z,33.60
2022-12-20T05:08:55.951Z,32.90
2022-12-20T05:11:50.939Z,33.20
2022-12-20T05:14:38.946Z,37.30
2022-12-20T05:17:33.976Z,36.70
2022-12-20T05:20:28.934Z,33.70
2022-12-20T05:23:44.144Z,40.60
2022-12-20T05:26:41.926Z,37.80
2022-12-20T05:29:36.944Z,35.60
2022-12-20T05:32:25.131Z,40.90
2022-12-20T05:35:07.140Z,48.30
2022-12-20T05:37:54.937Z,53.00
2022-12-20T05:40:30.118Z,55.00
2022-12-20T05:43:24.940Z,48.30
2022-12-20T05:46:21.009Z,52.10
2022-12-20T05:49:09.148Z,54.80
2022-12-20T05:51:50.932Z,52.50
2022-12-20T05:54:45.931Z,63.40
2022-12-20T05:57:33.936Z,33.10
2022-12-20T06:00:11.080Z,38.50
2022-12-20T06:02:59.087Z,37.70
2022-12-20T06:05:34.061Z,39.00
2022-12-20T06:08:21.930Z,32.40
2022-12-20T06:10:57.070Z,33.30
2022-12-20T06:13:44.930Z,32.40
2022-12-20T06:16:28.062Z,32.80
2022-12-20T06:19:22.994Z,36.90
2022-12-20T06:22:17.938Z,36.40
2022-12-20T06:25:12.911Z,34.10
2022-12-20T06:28:07.951Z,34.10
2022-12-20T06:31:06.955Z,39.50
2022-12-20T06:34:02.628Z,35.60
2022-12-20T06:36:50.957Z,25.80
2022-12-20T06:39:26.112Z,33.90
2022-12-20T06:42:13.919Z,48.00
2022-12-20T06:44:49.048Z,54.60
2022-12-20T06:47:36.940Z,51.10
2022-12-20T06:50:13.062Z,51.30
2022-12-20T06:53:00.936Z,50.40
2022-12-20T06:55:57.920Z,47.70
2022-12-20T06:58:45.936Z,52.40
2022-12-20T07:01:21.245Z,58.50
2022-12-20T07:04:08.923Z,55.20
2022-12-20T07:06:44.063Z,57.00
2022-12-20T07:09:31.916Z,58.50
2022-12-20T07:12:13.939Z,53.80
2022-12-20T07:15:08.927Z,59.60
2022-12-20T07:18:03.948Z,51.40
2022-12-20T07:20:58.945Z,33.80
2022-12-20T07:23:46.912Z,37.00
2022-12-20T07:26:28.926Z,39.20
2022-12-20T07:29:23.906Z,26.20
2022-12-20T07:32:14.005Z,51.20
2022-12-20T07:34:49.057Z,52.50
2022-12-20T07:37:43.934Z,57.20
2022-12-20T07:40:38.919Z,61.50
2022-12-20T07:43:33.932Z,58.50
2022-12-20T07:46:29.988Z,50.50
2022-12-20T07:49:24.913Z,52.50
2022-12-20T07:52:13.934Z,67.60
2022-12-20T07:54:51.152Z,51.70
2022-12-20T07:57:48.919Z,64.70
2022-12-20T08:00:24.041Z,73.90
2022-12-20T08:03:17.973Z,64.20
2022-12-20T08:05:56.425Z,73.00
2022-12-20T08:08:45.918Z,67.60
2022-12-20T08:11:21.098Z,69.00
2022-12-20T08:14:08.903Z,73.20
2022-12-20T08:16:44.139Z,63.40
2022-12-20T08:19:32.731Z,63.30
2022-12-20T08:22:08.047Z,58.50
2022-12-20T08:24:55.908Z,51.30
2022-12-20T08:27:31.105Z,53.60
2022-12-20T08:30:18.918Z,51.60
2022-12-20T08:32:54.038Z,53.10
2022-12-20T08:35:41.910Z,52.20
2022-12-20T08:38:17.041Z,50.60
2022-12-20T08:41:25.892Z,47.90
2022-12-20T08:44:20.916Z,53.60
2022-12-20T08:47:15.984Z,66.70
2022-12-20T08:50:10.908Z,70.30
2022-12-20T08:53:05.986Z,76.40
2022-12-20T08:56:01.000Z,81.20
2022-12-20T08:58:56.888Z,79.30
2022-12-20T09:01:51.920Z,65.90
2022-12-20T09:04:47.084Z,55.40
2022-12-20T09:07:42.908Z,70.50
2022-12-20T09:10:42.824Z,71.50
2022-12-20T09:13:43.948Z,66.70
2022-12-20T09:16:44.905Z,71.00
2022-12-20T09:19:39.897Z,71.50
2022-12-20T09:22:34.950Z,66.10
2022-12-20T09:25:29.953Z,65.00
2022-12-20T09:28:26.891Z,62.90
2022-12-20T09:31:28.963Z,51.50
2022-12-20T09:34:23.872Z,61.90
2022-12-20T09:37:12.931Z,66.50
2022-12-20T09:39:48.064Z,66.20
2022-12-20T09:42:36.908Z,58.60
2022-12-20T09:45:39.294Z,64.90
2022-12-20T09:48:56.889Z,59.00
2022-12-20T09:52:16.870Z,64.90
2022-12-20T09:55:29.899Z,61.30
2022-12-20T09:58:45.323Z,58.20
2022-12-20T10:01:41.962Z,63.40
2022-12-20T10:04:42.234Z,52.50
2022-12-20T10:07:51.894Z,59.90
2022-12-20T10:11:08.883Z,63.30
2022-12-20T10:17:32.048Z,59.50
2022-12-20T10:20:50.097Z,59.20
2022-12-20T10:26:40.911Z,43.10
2022-12-20T10:29:16.240Z,55.90
2022-12-20T10:32:07.152Z,49.50
2022-12-20T10:34:48.165Z,63.90
2022-12-20T10:38:00.030Z,60.40
2022-12-20T10:41:21.985Z,64.60
2022-12-20T10:44:29.951Z,58.90
2022-12-20T10:47:43.040Z,51.10
2022-12-20T10:50:29.905Z,47.40
2022-12-20T10:53:17.870Z,56.50
2022-12-20T10:56:30.894Z,63.70
2022-12-20T10:59:25.713Z,55.50
2022-12-20T11:02:01.820Z,58.30
2022-12-20T11:05:30.938Z,48.30
2022-12-20T11:08:41.312Z,58.80
2022-12-20T11:11:36.857Z,44.50
2022-12-20T11:14:38.780Z,41.30
2022-12-20T11:17:37.858Z,41.20
2022-12-20T11:20:57.865Z,48.00
2022-12-20T11:23:59.854Z,60.60
2022-12-20T11:27:19.174Z,64.30
2022-12-20T11:30:27.864Z,55.20
2022-12-20T11:33:39.883Z,54.30
2022-12-20T11:37:05.855Z,51.70
2022-12-20T11:40:17.008Z,55.10
2022-12-20T11:43:26.872Z,44.30
2022-12-20T11:46:49.042Z,57.10
2022-12-20T11:49:51.846Z,55.10
2022-12-20T11:52:42.870Z,56.70
2022-12-20T11:55:21.877Z,57.70
2022-12-20T11:58:24.867Z,47.40
2022-12-20T12:01:27.925Z,39.00
2022-12-20T12:04:30.872Z,53.00
2022-12-20T12:07:35.846Z,36.40
2022-12-20T12:10:21.003Z,40.10
2022-12-20T12:13:33.128Z,41.70
2022-12-20T12:16:18.108Z,54.70
2022-12-20T12:19:14.859Z,52.90
2022-12-20T12:22:19.840Z,41.00
2022-12-20T12:25:17.899Z,42.00
2022-12-20T12:28:12.876Z,38.90
2022-12-20T12:31:17.904Z,49.50
2022-12-20T12:34:23.149Z,45.40
2022-12-20T12:37:36.944Z,47.00
2022-12-20T12:41:09.866Z,46.90
2022-12-20T12:44:09.956Z,48.30
2022-12-20T12:47:09.865Z,39.50
2022-12-20T12:50:06.846Z,47.20
2022-12-20T12:53:07.850Z,40.20
2022-12-20T12:56:34.641Z,41.00
2022-12-20T12:59:21.860Z,41.30
2022-12-20T13:02:18.109Z,33.90
2022-12-20T13:05:34.850Z,42.30
2022-12-20T13:08:24.993Z,47.00
2022-12-20T13:11:19.989Z,45.40
2022-12-20T13:13:55.125Z,40.40
2022-12-20T13:17:15.538Z,35.10
2022-12-20T13:19:43.962Z,34.50
2022-12-20T13:22:35.231Z,41.20
2022-12-20T13:25:43.863Z,44.30
2022-12-20T13:28:23.265Z,34.40
2022-12-20T13:31:18.910Z,42.20
2022-12-20T13:33:53.263Z,52.90
2022-12-20T13:36:47.835Z,34.40
2022-12-20T13:39:22.239Z,44.70
2022-12-20T13:42:29.102Z,48.50
2022-12-20T13:45:10.029Z,47.40
2022-12-20T13:48:07.718Z,48.50
2022-12-20T13:51:07.872Z,40.70
2022-12-20T13:54:09.869Z,47.10
2022-12-20T13:57:05.834Z,49.30
2022-12-20T14:00:07.094Z,47.90
2022-12-20T14:03:03.044Z,43.40
2022-12-20T14:05:57.833Z,45.60
2022-12-20T14:08:48.967Z,35.20
2022-12-20T14:11:37.911Z,38.60
2022-12-20T14:14:18.990Z,40.10
2022-12-20T14:17:26.844Z,37.30
2022-12-20T14:20:19.997Z,39.10
2022-12-20T14:23:12.834Z,39.70
2022-12-20T14:25:54.889Z,39.70
2022-12-20T14:28:52.865Z,54.60
2022-12-20T14:31:40.872Z,50.90
2022-12-20T14:34:18.089Z,51.00
2022-12-20T14:37:42.822Z,28.10
2022-12-20T14:40:18.026Z,48.50
2022-12-20T14:43:12.925Z,46.50
2022-12-20T14:46:32.058Z,62.10
2022-12-20T14:49:32.934Z,52.80
2022-12-20T14:52:24.807Z,49.00
2022-12-20T14:55:08.202Z,57.40
2022-12-20T14:58:06.846Z,46.80
2022-12-20T15:01:16.903Z,50.60
2022-12-20T15:04:06.892Z,44.70
2022-12-20T15:06:55.066Z,38.10
2022-12-20T15:09:43.006Z,48.60
2022-12-20T15:12:17.944Z,53.20
2022-12-20T15:15:27.753Z,50.00
2022-12-20T15:18:06.813Z,45.30
2022-12-20T15:21:07.928Z,51.70
2022-12-20T15:23:59.936Z,43.60
2022-12-20T15:26:41.827Z,50.20
2022-12-20T15:29:38.814Z,54.20
2022-12-20T15:32:37.453Z,54.90
2022-12-20T15:35:19.014Z,49.40
2022-12-20T15:38:13.814Z,36.90
2022-12-20T15:41:10.916Z,36.70
2022-12-20T15:44:08.892Z,25.10
2022-12-20T15:47:04.986Z,56.40
2022-12-20T15:49:52.954Z,49.20
2022-12-20T15:52:30.139Z,49.60
2022-12-20T15:55:18.852Z,55.30
2022-12-20T15:57:53.980Z,55.50
2022-12-20T16:00:42.812Z,36.60
2022-12-20T16:03:27.349Z,31.90
2022-12-20T16:06:20.300Z,54.40
2022-12-20T16:08:54.955Z,60.80
2022-12-20T16:11:42.823Z,66.80
2022-12-20T16:14:28.838Z,60.50
2022-12-20T16:17:22.825Z,55.20
2022-12-20T16:20:04.982Z,49.50
2022-12-20T16:22:59.829Z,49.50
2022-12-20T16:25:47.873Z,47.30
2022-12-20T16:28:22.937Z,47.90
2022-12-20T16:31:44.877Z,33.70
2022-12-20T16:34:39.880Z,43.70
2022-12-20T16:37:38.966Z,53.20
2022-12-20T16:40:26.958Z,62.70
2022-12-20T16:43:02.938Z,63.40
2022-12-20T16:45:50.867Z,54.20
2022-12-20T16:48:45.869Z,56.10
2022-12-20T16:51:45.802Z,57.10
2022-12-20T16:54:31.815Z,37.30
2022-12-20T16:57:26.860Z,62.50
2022-12-20T17:00:22.822Z,65.60
2022-12-20T17:03:10.990Z,59.10
2022-12-20T17:05:59.797Z,53.00
2022-12-20T17:08:53.069Z,59.30
2022-12-20T17:11:40.808Z,36.00
2022-12-20T17:14:26.847Z,48.60
2022-12-20T17:17:21.803Z,65.90
2022-12-20T17:20:16.898Z,54.40
2022-12-20T17:25:56.964Z,50.30
2022-12-20T17:28:45.010Z,46.10
2022-12-20T17:31:39.541Z,36.80
2022-12-20T17:34:36.833Z,61.20
2022-12-20T17:37:24.839Z,54.20
2022-12-20T17:40:38.902Z,53.60
2022-12-20T17:43:33.839Z,61.30
2022-12-20T17:46:28.956Z,61.80
2022-12-20T17:49:24.879Z,62.20
2022-12-20T17:52:12.911Z,60.10
2022-12-20T17:54:54.808Z,65.10
2022-12-20T17:57:49.802Z,48.60
2022-12-20T18:00:41.783Z,58.00
2022-12-20T18:04:01.117Z,51.60
2022-12-20T18:06:25.769Z,49.30
2022-12-20T18:09:25.782Z,45.50
2022-12-20T18:12:21.796Z,51.60
2022-12-20T18:15:16.776Z,47.80
2022-12-20T18:18:04.782Z,50.00
2022-12-20T18:21:00.779Z,52.60
2022-12-20T18:23:56.787Z,45.40
2022-12-20T18:26:53.385Z,45.90
2022-12-20T18:29:48.815Z,47.10
2022-12-20T18:32:43.788Z,43.90
2022-12-20T18:35:39.298Z,45.10
2022-12-20T18:38:33.990Z,49.90
2022-12-20T18:41:26.956Z,52.50
2022-12-20T18:44:14.516Z,54.30
2022-12-20T18:47:02.928Z,52.60
2022-12-20T18:49:44.925Z,47.10
2022-12-20T18:52:44.287Z,50.00
2022-12-20T18:55:34.778Z,46.90
2022-12-20T18:58:09.931Z,50.20
2022-12-20T19:01:05.299Z,51.50
2022-12-20T19:03:50.873Z,44.70
2022-12-20T19:06:45.805Z,44.30
2022-12-20T19:09:40.932Z,48.50
2022-12-20T19:12:39.990Z,58.60
2022-12-20T19:15:34.782Z,64.40
2022-12-20T19:18:29.772Z,48.60
2022-12-20T19:21:32.807Z,52.20
2022-12-20T19:24:28.056Z,54.90
2022-12-20T19:27:22.775Z,55.30
2022-12-20T19:30:17.781Z,51.80
2022-12-20T19:33:16.682Z,53.80
2022-12-20T19:36:06.981Z,56.70
2022-12-20T19:38:41.897Z,50.00
2022-12-20T19:41:32.805Z,56.30
2022-12-20T19:44:25.865Z,56.10
2022-12-20T19:47:06.733Z,67.30
2022-12-20T19:49:56.767Z,65.80
2022-12-20T19:52:53.832Z,60.70
2022-12-20T19:55:41.831Z,54.20
2022-12-20T19:58:16.887Z,56.00
2022-12-20T20:01:04.795Z,45.40
2022-12-20T20:03:41.214Z,50.70
2022-12-20T20:06:28.791Z,53.30
2022-12-20T20:09:05.465Z,48.20
2022-12-20T20:11:53.755Z,51.30
2022-12-20T20:14:29.054Z,55.90
2022-12-20T20:17:18.776Z,46.20
2022-12-20T20:19:54.101Z,53.80
2022-12-20T20:22:42.162Z,47.20
2022-12-20T20:25:21.879Z,51.20
2022-12-20T20:28:17.747Z,54.10
2022-12-20T20:31:13.992Z,52.30
2022-12-20T20:34:07.839Z,53.70
2022-12-20T20:36:49.976Z,50.50
2022-12-20T20:39:45.850Z,55.10
2022-12-20T20:42:41.501Z,57.30
2022-12-20T20:45:37.958Z,56.50
2022-12-20T20:48:33.857Z,55.80
2022-12-20T20:51:28.742Z,44.30
2022-12-20T20:54:24.274Z,42.70
2022-12-20T20:57:14.384Z,53.40
2022-12-20T20:59:48.941Z,44.70
2022-12-20T21:02:36.863Z,47.00
2022-12-20T21:08:26.021Z,52.50
2022-12-20T21:11:14.931Z,47.70
2022-12-20T21:13:56.772Z,58.90
2022-12-20T21:16:53.775Z,52.80
2022-12-20T21:19:48.777Z,46.90
2022-12-20T21:22:36.928Z,48.20
2022-12-20T21:25:19.791Z,58.20
2022-12-20T21:28:20.974Z,53.70
2022-12-20T21:31:12.831Z,58.60
2022-12-20T21:33:54.738Z,54.90
2022-12-20T21:36:49.715Z,47.30
2022-12-20T21:39:37.741Z,50.50
2022-12-20T21:42:12.892Z,50.90
2022-12-20T21:45:00.920Z,48.10
2022-12-20T21:47:36.030Z,49.80
2022-12-20T21:50:24.982Z,48.30
2022-12-20T21:53:00.285Z,52.30
2022-12-20T21:55:48.906Z,48.60
2022-12-20T21:58:31.434Z,50.60
2022-12-20T22:01:28.162Z,35.80
2022-12-20T22:04:19.552Z,32.50
2022-12-20T22:06:57.516Z,47.90
2022-12-20T22:09:52.973Z,49.40
2022-12-20T22:12:47.876Z,49.40
2022-12-20T22:15:42.728Z,49.30
2022-12-20T22:18:40.752Z,57.30
2022-12-20T22:21:44.717Z,54.60
2022-12-20T22:24:39.760Z,43.50
2022-12-20T22:27:34.729Z,47.80
2022-12-20T22:30:29.781Z,43.40
2022-12-20T22:33:24.724Z,41.00
2022-12-20T22:36:20.740Z,42.40
2022-12-20T22:39:15.729Z,53.80
2022-12-20T22:42:11.760Z,54.20
2022-12-20T22:45:00.763Z,42.90
2022-12-20T22:50:40.651Z,41.90
2022-12-20T22:53:16.071Z,40.40
2022-12-20T22:56:03.705Z,47.00
2022-12-20T22:58:38.784Z,46.00
2022-12-20T23:01:27.754Z,42.60
2022-12-20T23:04:03.000Z,39.80
2022-12-20T23:06:57.676Z,45.60
2022-12-20T23:09:45.658Z,43.80
2022-12-20T23:12:39.545Z,46.80
2022-12-20T23:15:49.664Z,41.70
2022-12-20T23:18:44.866Z,42.40
2022-12-20T23:21:59.812Z,41.40
2022-12-20T23:24:55.653Z,31.70
2022-12-20T23:27:43.640Z,48.80
2022-12-20T23:30:20.781Z,59.10
2022-12-20T23:33:08.632Z,55.50
2022-12-20T23:35:56.649Z,43.70
2022-12-20T23:38:42.772Z,46.80
2022-12-20T23:41:30.649Z,47.30
2022-12-20T23:44:05.837Z,52.00
2022-12-20T23:46:53.659Z,49.90
2022-12-20T23:49:27.931Z,49.00
2022-12-20T23:52:15.636Z,50.80
2022-12-20T23:54:50.776Z,49.10
2022-12-20T23:57:45.627Z,48.50
